Providence, Rhode Island
Traffic Map
Current Weather Conditions
Providence, Rhode Island
Overcast Light Rain
Overcast

Feels Like: -2°
Wind Chill: -2° Ceiling: 2100
Heat Index: Visibility: 10mi
Dew Point: Wind: 20mph
Humidity: 79% Direction: 50° (NE)
Pressure: 29.89in Gusts: 28mph
Raw Report DataKPVD 231851Z 05017G24KT 10SM -RA BKN021 OVC026 03/00 A2989 RMK AO2 PK WND 06029/1804 RAE20B39 SLP120 P0000 T00330000
Traffic Incident Summary
Active as of:
Severity:
Category:
InformationThere was an issue retrieving the traffic information for this location. Please try a different location or try again shortly.
Advertisements
Track Severe Weather on mobile